createdAt,value
2019-01-11T00:00:33.465Z,57.91
2019-01-11T00:03:20.329Z,57.81
2019-01-11T00:06:09.355Z,57.96
2019-01-11T00:08:55.919Z,58.13
2019-01-11T00:11:43.142Z,58.41
2019-01-11T00:14:30.307Z,58.20
2019-01-11T00:17:17.604Z,58.09
2019-01-11T00:20:07.868Z,58.54
2019-01-11T00:22:55.183Z,58.94
2019-01-11T00:25:41.969Z,58.75
2019-01-11T00:28:29.324Z,58.52
2019-01-11T00:31:16.370Z,58.39
2019-01-11T00:34:03.621Z,58.69
2019-01-11T00:36:51.170Z,59.12
2019-01-11T00:39:38.711Z,59.07
2019-01-11T00:42:25.760Z,59.27
2019-01-11T00:45:13.401Z,59.01
2019-01-11T00:48:00.736Z,59.19
2019-01-11T00:50:47.853Z,59.04
2019-01-11T00:53:35.094Z,59.31
2019-01-11T00:56:22.741Z,59.23
2019-01-11T00:59:09.953Z,59.48
2019-01-11T01:01:57.348Z,59.26
2019-01-11T01:04:44.583Z,59.22
2019-01-11T01:07:31.816Z,59.47
2019-01-11T01:10:20.574Z,59.41
2019-01-11T01:13:07.958Z,59.79
2019-01-11T01:15:55.625Z,59.86
2019-01-11T01:18:43.061Z,59.96
2019-01-11T01:21:30.511Z,60.00
2019-01-11T01:24:17.693Z,60.35
2019-01-11T01:27:05.139Z,60.42
2019-01-11T01:29:52.568Z,61.21
2019-01-11T01:32:40.073Z,61.38
2019-01-11T01:35:27.325Z,60.96
2019-01-11T01:38:14.569Z,60.68
2019-01-11T01:41:01.723Z,60.80
2019-01-11T01:43:49.164Z,61.16
2019-01-11T01:46:36.627Z,60.90
2019-01-11T01:49:26.673Z,61.60
2019-01-11T01:52:12.397Z,62.16
2019-01-11T01:54:59.649Z,61.78
2019-01-11T01:57:46.750Z,61.71
2019-01-11T02:00:33.982Z,61.50
2019-01-11T02:03:21.215Z,61.56
2019-01-11T02:06:08.268Z,61.65
2019-01-11T02:08:55.033Z,61.74
2019-01-11T02:11:42.349Z,62.04
2019-01-11T02:14:29.648Z,61.94
2019-01-11T02:17:17.938Z,62.11
2019-01-11T02:20:11.306Z,61.84
2019-01-11T02:22:58.412Z,61.50
2019-01-11T02:25:46.390Z,62.63
2019-01-11T02:28:34.108Z,62.16
2019-01-11T02:31:21.371Z,62.27
2019-01-11T02:34:08.312Z,62.17
2019-01-11T02:36:55.677Z,62.27
2019-01-11T02:39:43.069Z,61.91
2019-01-11T02:42:30.181Z,61.62
2019-01-11T02:45:19.263Z,62.37
2019-01-11T02:48:06.552Z,62.38
2019-01-11T02:50:53.996Z,62.21
2019-01-11T02:53:41.274Z,61.90
2019-01-11T02:56:28.575Z,62.02
2019-01-11T02:59:15.977Z,62.35
2019-01-11T03:02:03.646Z,62.30
2019-01-11T03:04:50.666Z,62.21
2019-01-11T03:07:37.988Z,62.44
2019-01-11T03:10:25.458Z,62.28
2019-01-11T03:13:12.584Z,62.38
2019-01-11T03:16:00.055Z,62.83
2019-01-11T03:18:47.293Z,63.99
2019-01-11T03:21:34.334Z,65.78
2019-01-11T03:24:21.350Z,64.82
2019-01-11T03:27:08.598Z,64.64
2019-01-11T03:29:55.449Z,64.04
2019-01-11T03:32:42.901Z,64.01
2019-01-11T03:35:30.063Z,63.69
2019-01-11T03:38:17.555Z,63.55
2019-01-11T03:41:04.549Z,63.44
2019-01-11T03:43:51.774Z,63.57
2019-01-11T03:46:38.899Z,63.30
2019-01-11T03:49:26.021Z,63.29
2019-01-11T03:52:13.086Z,63.40
2019-01-11T03:55:00.375Z,63.48
2019-01-11T03:57:47.521Z,63.92
2019-01-11T04:00:34.907Z,64.11
2019-01-11T04:03:22.479Z,64.96
2019-01-11T04:06:09.433Z,65.29
2019-01-11T04:08:56.715Z,64.79
2019-01-11T04:11:43.903Z,64.79
2019-01-11T04:14:31.034Z,64.31
2019-01-11T04:17:18.180Z,64.75
2019-01-11T04:20:08.838Z,64.85
2019-01-11T04:22:57.596Z,64.86
2019-01-11T04:25:45.082Z,65.54
2019-01-11T04:28:32.312Z,65.99
2019-01-11T04:31:19.158Z,66.45
2019-01-11T04:34:06.195Z,66.44
2019-01-11T04:36:53.411Z,66.10
2019-01-11T04:39:40.497Z,66.03
2019-01-11T04:42:27.627Z,65.72
2019-01-11T04:45:14.845Z,65.71
2019-01-11T04:48:02.183Z,65.54
2019-01-11T04:50:49.229Z,66.79
2019-01-11T04:53:36.475Z,66.90
2019-01-11T04:56:23.312Z,66.43
2019-01-11T04:59:10.585Z,65.89
2019-01-11T05:01:58.064Z,65.25
2019-01-11T05:04:45.276Z,64.94
2019-01-11T05:07:32.621Z,65.82
2019-01-11T05:10:19.906Z,65.90
2019-01-11T05:13:08.772Z,65.39
2019-01-11T05:15:55.983Z,65.81
2019-01-11T05:18:43.122Z,65.57
2019-01-11T05:21:30.477Z,65.17
2019-01-11T05:24:17.759Z,65.07
2019-01-11T05:27:04.912Z,65.46
2019-01-11T05:29:52.136Z,65.02
2019-01-11T05:32:39.388Z,65.29
2019-01-11T05:35:26.483Z,66.82
2019-01-11T05:38:13.305Z,66.71
2019-01-11T05:41:00.613Z,66.61
2019-01-11T05:43:47.989Z,67.12
2019-01-11T05:46:34.874Z,66.86
2019-01-11T05:49:22.108Z,66.25
2019-01-11T05:52:09.267Z,66.05
2019-01-11T05:54:56.170Z,66.23
2019-01-11T05:57:44.995Z,66.72
2019-01-11T06:00:32.515Z,66.48
2019-01-11T06:03:19.673Z,66.35
2019-01-11T06:06:07.682Z,67.86
2019-01-11T06:08:54.854Z,66.91
2019-01-11T06:11:42.056Z,66.47
2019-01-11T06:14:29.223Z,66.72
2019-01-11T06:17:16.394Z,66.31
2019-01-11T06:20:05.537Z,66.73
2019-01-11T06:22:52.542Z,66.54
2019-01-11T06:25:39.665Z,66.50
2019-01-11T06:28:26.866Z,66.94
2019-01-11T06:31:13.956Z,67.03
2019-01-11T06:34:00.736Z,67.49
2019-01-11T06:36:47.859Z,66.90
2019-01-11T06:39:35.335Z,66.42
2019-01-11T06:42:24.132Z,66.90
2019-01-11T06:45:11.589Z,66.98
2019-01-11T06:47:59.158Z,67.32
2019-01-11T06:50:46.151Z,68.42
2019-01-11T06:53:33.190Z,68.30
2019-01-11T06:56:20.224Z,69.06
2019-01-11T06:59:09.172Z,69.56
2019-01-11T07:01:56.612Z,68.61
2019-01-11T07:04:43.764Z,68.38
2019-01-11T07:07:30.871Z,68.30
2019-01-11T07:10:22.862Z,67.42
2019-01-11T07:13:10.096Z,67.33
2019-01-11T07:15:57.294Z,67.42
2019-01-11T07:18:44.656Z,67.43
2019-01-11T07:21:31.915Z,66.90
2019-01-11T07:24:19.270Z,67.19
2019-01-11T07:27:06.182Z,66.79
2019-01-11T07:29:53.395Z,67.25
2019-01-11T07:32:40.805Z,67.10
2019-01-11T07:35:29.558Z,67.66
2019-01-11T07:38:16.572Z,68.40
2019-01-11T07:41:03.770Z,69.00
2019-01-11T07:43:51.147Z,69.07
2019-01-11T07:46:39.782Z,68.14
2019-01-11T07:49:26.570Z,66.96
2019-01-11T07:52:14.077Z,66.60
2019-01-11T07:55:01.088Z,66.67
2019-01-11T07:57:48.369Z,67.92
2019-01-11T08:00:35.913Z,67.55
2019-01-11T08:03:22.973Z,67.34
2019-01-11T08:06:10.161Z,67.25
2019-01-11T08:08:57.232Z,67.13
2019-01-11T08:11:44.410Z,67.07
2019-01-11T08:14:31.321Z,67.83
2019-01-11T08:17:18.780Z,68.07
2019-01-11T08:20:07.590Z,67.57
2019-01-11T08:22:54.719Z,67.85
2019-01-11T08:25:41.825Z,67.63
2019-01-11T08:28:30.320Z,68.66
2019-01-11T08:31:17.668Z,68.02
2019-01-11T08:34:05.128Z,68.48
2019-01-11T08:36:52.332Z,69.28
2019-01-11T08:39:39.433Z,69.34
2019-01-11T08:42:26.819Z,69.29
2019-01-11T08:45:15.164Z,69.34
2019-01-11T08:48:02.185Z,68.83
2019-01-11T08:50:49.249Z,68.61
2019-01-11T08:53:36.265Z,68.18
2019-01-11T08:56:23.524Z,68.26
2019-01-11T08:59:10.559Z,68.63
2019-01-11T09:01:57.837Z,69.78
2019-01-11T09:04:45.270Z,68.89
2019-01-11T09:07:32.754Z,68.42
2019-01-11T09:10:23.259Z,68.18
2019-01-11T09:13:08.646Z,68.18
2019-01-11T09:15:56.059Z,67.69
2019-01-11T09:18:45.422Z,67.27
2019-01-11T09:21:32.604Z,67.22
2019-01-11T09:24:19.646Z,68.21
2019-01-11T09:27:06.803Z,68.55
2019-01-11T09:29:54.240Z,69.13
2019-01-11T09:32:41.349Z,69.05
2019-01-11T09:35:28.761Z,68.22
2019-01-11T09:38:16.778Z,69.86
2019-01-11T09:41:04.123Z,69.31
2019-01-11T09:43:51.126Z,69.54
2019-01-11T09:46:38.243Z,69.74
2019-01-11T09:49:25.761Z,70.72
2019-01-11T09:52:13.169Z,70.29
2019-01-11T09:55:00.256Z,70.12
2019-01-11T09:57:47.423Z,69.10
2019-01-11T10:00:34.351Z,68.83
2019-01-11T10:03:21.377Z,69.24
2019-01-11T10:06:09.894Z,69.87
2019-01-11T10:08:57.034Z,69.64
2019-01-11T10:11:44.145Z,69.14
2019-01-11T10:14:31.314Z,69.94
2019-01-11T10:17:18.687Z,69.16
2019-01-11T10:20:08.141Z,68.66
2019-01-11T10:22:55.029Z,68.84
2019-01-11T10:25:42.148Z,68.19
2019-01-11T10:28:29.615Z,68.73
2019-01-11T10:31:16.869Z,69.74
2019-01-11T10:34:04.116Z,68.85
2019-01-11T10:36:51.344Z,68.86
2019-01-11T10:39:38.458Z,69.03
2019-01-11T10:42:25.881Z,70.22
2019-01-11T10:45:15.772Z,70.83
2019-01-11T10:48:02.848Z,70.00
2019-01-11T10:50:49.997Z,70.00
2019-01-11T10:53:37.067Z,69.79
2019-01-11T10:56:24.233Z,69.59
2019-01-11T10:59:11.482Z,69.58
2019-01-11T11:01:58.601Z,69.57
2019-01-11T11:04:45.773Z,68.89
2019-01-11T11:07:33.408Z,68.58
2019-01-11T11:10:20.735Z,68.48
2019-01-11T11:13:07.547Z,67.82
2019-01-11T11:15:55.848Z,68.06
2019-01-11T11:18:42.774Z,68.12
2019-01-11T11:21:34.654Z,68.52
2019-01-11T11:24:19.117Z,69.03
2019-01-11T11:27:06.719Z,72.01
2019-01-11T11:29:53.556Z,70.97
2019-01-11T11:32:48.371Z,69.72
2019-01-11T11:35:35.442Z,69.56
2019-01-11T11:38:22.600Z,69.08
2019-01-11T11:41:09.948Z,68.64
2019-01-11T11:43:57.079Z,69.05
2019-01-11T11:46:44.411Z,68.26
2019-01-11T11:49:32.589Z,68.05
2019-01-11T11:52:20.013Z,67.69
2019-01-11T11:55:08.828Z,68.83
2019-01-11T11:57:56.278Z,68.64
2019-01-11T12:00:43.465Z,68.29
2019-01-11T12:03:30.708Z,68.67
2019-01-11T12:06:18.081Z,69.18
2019-01-11T12:09:08.069Z,69.30
2019-01-11T12:11:55.134Z,69.64
2019-01-11T12:14:42.595Z,69.41
2019-01-11T12:17:29.991Z,69.58
2019-01-11T12:20:26.806Z,70.42
2019-01-11T12:23:14.084Z,70.35
2019-01-11T12:26:02.856Z,68.98
2019-01-11T12:28:50.051Z,69.50
2019-01-11T12:31:37.178Z,69.11
2019-01-11T12:34:24.173Z,68.92
2019-01-11T12:37:11.614Z,68.22
2019-01-11T12:39:58.881Z,68.07
2019-01-11T12:42:46.082Z,67.87
2019-01-11T12:45:33.470Z,67.99
2019-01-11T12:48:20.828Z,68.10
2019-01-11T12:51:08.040Z,68.42
2019-01-11T12:53:55.200Z,68.77
2019-01-11T12:56:42.459Z,69.05
2019-01-11T12:59:29.642Z,68.62
2019-01-11T13:02:16.760Z,69.92
2019-01-11T13:05:05.551Z,69.55
2019-01-11T13:07:52.786Z,69.08
2019-01-11T13:10:39.688Z,69.33
2019-01-11T13:13:26.626Z,69.16
2019-01-11T13:16:14.186Z,68.50
2019-01-11T13:19:01.239Z,69.28
2019-01-11T13:21:48.511Z,69.58
2019-01-11T13:24:35.643Z,69.54
2019-01-11T13:27:23.015Z,68.94
2019-01-11T13:30:12.761Z,68.52
2019-01-11T13:32:59.981Z,69.68
2019-01-11T13:35:47.386Z,70.60
2019-01-11T13:38:34.779Z,69.30
2019-01-11T13:41:22.033Z,69.14
2019-01-11T13:44:09.438Z,69.77
2019-01-11T13:46:56.399Z,70.78
2019-01-11T13:49:43.760Z,70.16
2019-01-11T13:52:32.106Z,70.38
2019-01-11T13:55:18.970Z,69.96
2019-01-11T13:58:06.642Z,69.60
2019-01-11T14:00:54.873Z,70.11
2019-01-11T14:03:41.724Z,71.17
2019-01-11T14:06:28.966Z,70.48
2019-01-11T14:09:16.174Z,69.58
2019-01-11T14:12:03.050Z,69.68
2019-01-11T14:14:50.478Z,71.07
2019-01-11T14:17:37.796Z,70.85
2019-01-11T14:20:25.949Z,72.46
2019-01-11T14:23:12.900Z,73.38
2019-01-11T14:26:00.104Z,72.25
2019-01-11T14:28:47.444Z,71.50
2019-01-11T14:31:34.562Z,71.83
2019-01-11T14:34:22.081Z,73.06
2019-01-11T14:37:09.042Z,71.93
2019-01-11T14:39:55.943Z,71.83
2019-01-11T14:42:43.633Z,72.90
2019-01-11T14:45:30.950Z,73.01
2019-01-11T14:48:18.331Z,73.77
2019-01-11T14:51:05.647Z,74.47
2019-01-11T14:53:53.118Z,75.37
2019-01-11T14:56:40.348Z,74.03
2019-01-11T14:59:27.763Z,74.98
2019-01-11T15:02:15.208Z,73.74
2019-01-11T15:05:02.629Z,73.17
2019-01-11T15:07:49.767Z,74.49
2019-01-11T15:10:36.984Z,73.28
2019-01-11T15:13:24.252Z,73.31
2019-01-11T15:16:11.170Z,73.04
2019-01-11T15:18:58.218Z,73.56
2019-01-11T15:21:45.616Z,73.15
2019-01-11T15:24:32.920Z,73.90
2019-01-11T15:27:20.332Z,74.25
2019-01-11T15:30:18.357Z,73.67
2019-01-11T15:33:05.508Z,74.15
2019-01-11T15:35:52.278Z,73.03
2019-01-11T15:38:39.790Z,73.85
2019-01-11T15:41:26.922Z,73.61
2019-01-11T15:44:14.130Z,74.69
2019-01-11T15:47:01.280Z,74.75
2019-01-11T15:49:48.851Z,74.91
2019-01-11T15:52:36.202Z,75.56
2019-01-11T15:55:24.704Z,75.36
2019-01-11T15:58:12.000Z,74.75
2019-01-11T16:00:59.384Z,74.23
2019-01-11T16:03:46.560Z,73.60
2019-01-11T16:06:33.989Z,73.40
2019-01-11T16:09:56.840Z,72.83
2019-01-11T16:12:44.504Z,73.98
2019-01-11T16:15:43.483Z,73.07
2019-01-11T16:18:30.976Z,72.81
2019-01-11T16:21:18.072Z,74.34
2019-01-11T16:24:05.971Z,73.29
2019-01-11T16:26:53.034Z,72.50
2019-01-11T16:29:40.376Z,73.76
2019-01-11T16:32:27.448Z,73.36
2019-01-11T16:35:14.796Z,73.20
2019-01-11T16:38:01.860Z,74.89
2019-01-11T16:40:49.294Z,74.57
2019-01-11T16:43:36.341Z,73.56
2019-01-11T16:46:23.694Z,73.20
2019-01-11T16:49:11.229Z,73.87
2019-01-11T16:51:58.286Z,72.91
2019-01-11T16:54:45.526Z,72.77
2019-01-11T16:57:33.274Z,73.96
2019-01-11T17:00:20.818Z,73.57
2019-01-11T17:03:08.235Z,73.29
2019-01-11T17:05:55.785Z,73.66
2019-01-11T17:08:43.139Z,73.28
2019-01-11T17:11:31.360Z,72.64
2019-01-11T17:14:18.449Z,72.92
2019-01-11T17:17:06.048Z,73.40
2019-01-11T17:19:53.573Z,73.65
2019-01-11T17:22:40.784Z,74.26
2019-01-11T17:25:28.016Z,73.37
2019-01-11T17:28:15.514Z,71.75
2019-01-11T17:31:03.259Z,72.62
2019-01-11T17:33:51.070Z,72.70
2019-01-11T17:36:38.536Z,72.49
2019-01-11T17:39:25.698Z,74.36
2019-01-11T17:42:13.048Z,73.87
2019-01-11T17:45:00.447Z,73.47
2019-01-11T17:47:47.909Z,73.06
2019-01-11T17:50:35.415Z,74.81
2019-01-11T17:53:22.570Z,73.59
2019-01-11T17:56:09.785Z,72.88
2019-01-11T17:58:56.835Z,73.09
2019-01-11T18:01:44.052Z,72.59
2019-01-11T18:04:32.295Z,73.26
2019-01-11T18:07:19.709Z,73.24
2019-01-11T18:10:09.274Z,72.30
2019-01-11T18:12:56.456Z,72.57
2019-01-11T18:15:43.610Z,73.62
2019-01-11T18:18:30.989Z,73.91
2019-01-11T18:21:18.552Z,74.15
2019-01-11T18:24:05.646Z,72.99
2019-01-11T18:26:53.262Z,74.34
2019-01-11T18:29:40.629Z,74.05
2019-01-11T18:32:28.055Z,73.56
2019-01-11T18:35:15.725Z,73.34
2019-01-11T18:38:03.035Z,73.08
2019-01-11T18:40:49.888Z,73.44
2019-01-11T18:43:36.873Z,74.02
2019-01-11T18:46:24.422Z,74.14
2019-01-11T18:49:11.309Z,74.08
2019-01-11T18:51:58.436Z,72.96
2019-01-11T18:54:45.313Z,71.82
2019-01-11T18:57:32.515Z,72.07
2019-01-11T19:00:24.341Z,70.98
2019-01-11T19:03:11.677Z,71.02
2019-01-11T19:05:59.040Z,71.07
2019-01-11T19:08:46.425Z,71.28
2019-01-11T19:11:33.785Z,71.20
2019-01-11T19:14:20.891Z,71.17
2019-01-11T19:17:08.158Z,71.32
2019-01-11T19:19:55.627Z,70.80
2019-01-11T19:22:43.047Z,70.74
2019-01-11T19:25:29.985Z,72.35
2019-01-11T19:28:17.244Z,71.60
2019-01-11T19:31:04.462Z,71.60
2019-01-11T19:33:51.493Z,71.36
2019-01-11T19:36:39.078Z,70.69
2019-01-11T19:39:26.507Z,70.69
2019-01-11T19:42:13.455Z,70.39
2019-01-11T19:45:00.815Z,70.20
2019-01-11T19:47:48.089Z,69.84
2019-01-11T19:50:36.770Z,70.00
2019-01-11T19:53:27.659Z,70.53
2019-01-11T19:56:13.123Z,70.85
2019-01-11T19:59:00.533Z,70.39
2019-01-11T20:01:47.985Z,69.67
2019-01-11T20:04:35.413Z,70.09
2019-01-11T20:07:22.583Z,70.29
2019-01-11T20:10:12.939Z,70.22
2019-01-11T20:13:00.580Z,70.80
2019-01-11T20:15:47.624Z,70.84
2019-01-11T20:18:35.137Z,70.28
2019-01-11T20:21:22.521Z,69.89
2019-01-11T20:24:09.501Z,70.45
2019-01-11T20:26:56.594Z,71.18
2019-01-11T20:29:43.414Z,71.43
2019-01-11T20:32:30.570Z,72.24
2019-01-11T20:35:18.442Z,71.24
2019-01-11T20:38:05.714Z,71.66
2019-01-11T20:40:53.195Z,71.56
2019-01-11T20:43:41.947Z,72.35
2019-01-11T20:46:29.053Z,72.29
2019-01-11T20:49:16.323Z,71.44
2019-01-11T20:52:03.570Z,71.61
2019-01-11T20:54:50.675Z,72.24
2019-01-11T20:57:38.024Z,71.91
2019-01-11T21:00:27.937Z,71.51
2019-01-11T21:03:15.634Z,71.22
2019-01-11T21:06:03.124Z,72.26
2019-01-11T21:08:50.607Z,72.15
2019-01-11T21:11:37.874Z,71.74
2019-01-11T21:14:24.943Z,71.49
2019-01-11T21:17:12.420Z,71.76
2019-01-11T21:19:59.545Z,70.69
2019-01-11T21:22:48.038Z,70.22
2019-01-11T21:25:35.150Z,70.14
2019-01-11T21:28:22.317Z,69.86
2019-01-11T21:31:09.258Z,69.61
2019-01-11T21:33:56.445Z,69.32
2019-01-11T21:36:43.703Z,68.98
2019-01-11T21:39:30.963Z,68.90
2019-01-11T21:42:19.127Z,69.00
2019-01-11T21:45:08.653Z,69.16
2019-01-11T21:47:56.202Z,69.32
2019-01-11T21:50:43.437Z,69.40
2019-01-11T21:53:30.592Z,69.26
2019-01-11T21:56:17.801Z,69.22
2019-01-11T21:59:05.373Z,69.19
2019-01-11T22:01:52.276Z,68.99
2019-01-11T22:04:39.367Z,68.85
2019-01-11T22:07:26.674Z,68.86
2019-01-11T22:10:16.419Z,68.55
2019-01-11T22:13:03.664Z,68.30
2019-01-11T22:15:50.617Z,68.31
2019-01-11T22:18:39.070Z,68.42
2019-01-11T22:21:26.293Z,68.12
2019-01-11T22:24:13.455Z,67.88
2019-01-11T22:27:00.605Z,68.25
2019-01-11T22:29:47.798Z,68.04
2019-01-11T22:32:35.265Z,67.98
2019-01-11T22:35:22.396Z,68.18
2019-01-11T22:38:09.715Z,67.90
2019-01-11T22:40:57.014Z,68.11
2019-01-11T22:43:44.369Z,67.96
2019-01-11T22:46:31.791Z,67.49
2019-01-11T22:49:18.829Z,67.17
2019-01-11T22:52:06.930Z,67.02
2019-01-11T22:54:53.789Z,67.04
2019-01-11T22:57:41.186Z,67.18
2019-01-11T23:00:35.453Z,67.10
2019-01-11T23:03:26.109Z,67.19
2019-01-11T23:06:28.195Z,67.36
2019-01-11T23:09:15.703Z,67.45
2019-01-11T23:12:12.163Z,67.24
2019-01-11T23:14:59.604Z,67.21
2019-01-11T23:17:50.211Z,67.26
2019-01-11T23:20:37.475Z,68.00
2019-01-11T23:23:24.394Z,67.69
2019-01-11T23:26:11.527Z,67.38
2019-01-11T23:28:58.618Z,67.64
2019-01-11T23:31:46.196Z,68.01
2019-01-11T23:34:33.611Z,67.96
2019-01-11T23:37:21.056Z,67.74
2019-01-11T23:40:11.117Z,67.50
2019-01-11T23:42:58.571Z,67.19
2019-01-11T23:45:45.786Z,66.90
2019-01-11T23:48:32.776Z,67.05
2019-01-11T23:51:19.951Z,66.91
2019-01-11T23:54:06.832Z,66.85
2019-01-11T23:56:55.023Z,66.66
2019-01-11T23:59:41.770Z,66.63
